Time;durP1;ratioP1;P1;durP2;ratioP2;P2;SDS_P1;SDS_P2;PMS_P1;PMS_P2;Temp;Humidity;BMP_temperature;BMP_pressure;BME280_temperature;BME280_humidity;BME280_pressure;Samples;Min_cycle;Max_cycle;Signal;HPM_P1;HPM_P2
2022/10/07 00:00:56;;;;;;;5.20;3.13;;;;;;;10.70;91.80;102442.44;5007619;28;20726;-50
2022/10/07 00:03:25;;;;;;;7.07;3.07;;;;;;;10.69;91.70;102442.41;5008771;28;20233;-51
2022/10/07 00:06:06;;;;;;;5.60;3.43;;;;;;;10.67;91.95;102436.22;5010601;28;20799;-52
2022/10/07 00:08:33;;;;;;;4.67;3.63;;;;;;;10.66;91.99;102430.09;5005282;28;20240;-52
2022/10/07 00:11:04;;;;;;;5.50;3.50;;;;;;;10.67;92.28;102430.97;5019982;28;20241;-52
2022/10/07 00:13:31;;;;;;;4.77;3.17;;;;;;;10.68;92.19;102432.78;5017423;28;20252;-54
2022/10/07 00:16:05;;;;;;;8.00;3.67;;;;;;;10.66;92.07;102442.34;5018561;28;20248;-52
2022/10/07 00:18:32;;;;;;;5.07;3.00;;;;;;;10.66;92.36;102432.72;5012350;28;20780;-52
2022/10/07 00:21:02;;;;;;;6.13;3.10;;;;;;;10.63;92.50;102431.75;5014196;28;20245;-52
2022/10/07 00:23:28;;;;;;;3.67;2.77;;;;;;;10.62;92.29;102430.88;5006173;28;20609;-52
2022/10/07 00:25:59;;;;;;;4.30;3.43;;;;;;;10.62;92.75;102430.88;5010509;28;20233;-51
2022/10/07 00:28:26;;;;;;;5.27;3.67;;;;;;;10.58;92.84;102425.50;5006039;28;20237;-53
2022/10/07 00:30:56;;;;;;;3.87;3.20;;;;;;;10.56;93.10;102427.19;5022876;28;20242;-51
2022/10/07 00:33:24;;;;;;;2.83;2.57;;;;;;;10.56;93.53;102427.19;5011688;28;20234;-51
2022/10/07 00:35:51;;;;;;;3.70;3.00;;;;;;;10.52;93.53;102434.09;5012223;28;20237;-56
2022/10/07 00:38:17;;;;;;;4.97;3.70;;;;;;;10.46;93.57;102426.97;5007762;28;20241;-52
2022/10/07 00:40:44;;;;;;;5.77;3.90;;;;;;;10.46;94.09;102426.97;5009084;28;20230;-50
2022/10/07 00:43:21;;;;;;;6.57;3.20;;;;;;;10.56;94.26;102427.19;5001381;28;20230;-51
2022/10/07 00:45:48;;;;;;;7.63;3.50;;;;;;;10.47;92.64;102423.47;5001093;28;20233;-51
2022/10/07 00:48:15;;;;;;;8.43;4.27;;;;;;;10.32;93.23;102419.53;5009011;28;20242;-50
2022/10/07 00:50:43;;;;;;;8.80;4.00;;;;;;;10.24;93.20;102412.31;5002955;28;20233;-52
2022/10/07 00:53:09;;;;;;;5.33;2.90;;;;;;;10.21;94.27;102413.97;5004667;28;20244;-53
2022/10/07 00:55:36;;;;;;;7.43;3.30;;;;;;;10.16;95.29;102405.09;5002317;28;20229;-52
2022/10/07 00:58:07;;;;;;;8.07;3.97;;;;;;;10.12;94.95;102413.72;4992469;28;20342;-52
2022/10/07 01:00:34;;;;;;;7.73;4.20;;;;;;;10.13;95.29;102405.00;4997222;28;20320;-52
2022/10/07 01:03:01;;;;;;;6.37;3.00;;;;;;;10.10;95.23;102410.16;4999537;28;20236;-53
2022/10/07 01:05:28;;;;;;;4.10;2.83;;;;;;;10.09;95.38;102408.38;5025640;28;20347;-52
2022/10/07 01:07:56;;;;;;;4.07;3.50;;;;;;;10.07;95.39;102400.44;5006277;28;20239;-51
2022/10/07 01:10:25;;;;;;;6.27;3.07;;;;;;;10.09;95.67;102403.13;5001766;28;20731;-51
2022/10/07 01:13:04;;;;;;;8.50;2.90;;;;;;;9.99;95.68;102405.50;5004238;28;20226;-52
2022/10/07 01:15:36;;;;;;;4.20;3.80;;;;;;;9.96;95.87;102391.41;4996939;28;20325;-52
2022/10/07 01:18:09;;;;;;;5.77;2.97;;;;;;;10.01;96.04;102395.94;5001177;28;20229;-52
2022/10/07 01:20:39;;;;;;;11.00;3.70;;;;;;;10.03;95.52;102391.59;4991807;28;21014;-52
2022/10/07 01:23:21;;;;;;;3.03;2.67;;;;;;;9.99;95.59;102387.13;5008631;28;20233;-50
2022/10/07 01:26:10;;;;;;;6.60;4.77;;;;;;;9.87;95.57;102385.91;5004551;28;20225;-51
2022/10/07 01:28:41;;;;;;;6.33;3.20;;;;;;;9.75;96.74;102386.44;5007623;28;20240;-52
2022/10/07 01:31:10;;;;;;;4.90;2.90;;;;;;;9.71;97.32;102372.34;5010886;28;20256;-51
2022/10/07 01:33:38;;;;;;;4.63;3.47;;;;;;;9.71;97.46;102376.69;4999440;28;20304;-52
2022/10/07 01:36:08;;;;;;;5.33;3.53;;;;;;;9.69;97.97;102375.78;4996472;28;20234;-51
2022/10/07 01:38:36;;;;;;;7.20;3.03;;;;;;;9.72;98.24;102376.75;4999067;28;20589;-51
2022/10/07 01:41:06;;;;;;;6.77;3.37;;;;;;;9.78;97.63;102376.03;5003112;28;20229;-52
2022/10/07 01:43:34;;;;;;;6.20;3.53;;;;;;;9.74;97.42;102374.16;5001686;28;20229;-51
2022/10/07 01:46:02;;;;;;;5.13;2.77;;;;;;;9.79;97.54;102362.06;4999364;28;20837;-52
2022/10/07 01:48:31;;;;;;;4.93;3.57;;;;;;;9.66;97.60;102365.19;5008731;28;20229;-50
2022/10/07 01:51:01;;;;;;;3.20;2.93;;;;;;;9.63;98.34;102359.88;4998842;28;20261;-51
2022/10/07 01:53:39;;;;;;;6.50;2.80;;;;;;;9.63;98.81;102354.63;5005985;28;20648;-51
2022/10/07 01:56:18;;;;;;;5.37;3.07;;;;;;;9.65;98.79;102350.28;4996392;28;20236;-51
2022/10/07 01:58:57;;;;;;;7.07;3.40;;;;;;;9.67;98.52;102346.88;5015539;28;20266;-52
2022/10/07 02:01:30;;;;;;;5.23;3.23;;;;;;;9.67;98.51;102346.00;5022420;28;20729;-52
2022/10/07 02:04:24;;;;;;;4.20;3.13;;;;;;;9.71;98.77;102337.34;5003754;28;20294;-51
2022/10/07 02:06:58;;;;;;;8.53;4.10;;;;;;;9.71;98.68;102337.34;5009529;28;20233;-52
2022/10/07 02:09:30;;;;;;;5.97;2.80;;;;;;;9.61;98.19;102337.94;5006094;28;20883;-52
2022/10/07 02:12:02;;;;;;;8.20;3.13;;;;;;;9.64;98.11;102332.78;4999241;28;20237;-52
2022/10/07 02:14:35;;;;;;;2.47;2.27;;;;;;;9.66;98.80;102329.38;5001200;28;20328;-51
2022/10/07 02:17:06;;;;;;;3.77;2.83;;;;;;;9.64;98.33;102330.16;4997848;28;20237;-51
2022/10/07 02:19:35;;;;;;;7.30;3.10;;;;;;;9.62;98.36;102323.97;4998864;28;20229;-51
2022/10/07 02:22:02;;;;;;;4.73;2.77;;;;;;;9.58;98.26;102330.84;5007429;28;20225;-52
2022/10/07 02:24:33;;;;;;;5.17;3.47;;;;;;;9.57;99.08;102329.09;4998820;28;20240;-55
2022/10/07 02:27:03;;;;;;;5.00;3.17;;;;;;;9.55;98.98;102315.97;4995465;28;20228;-52
2022/10/07 02:29:31;;;;;;;3.90;2.80;;;;;;;9.52;98.44;102323.72;5002607;28;21047;-52
2022/10/07 02:31:59;;;;;;;5.33;2.67;;;;;;;9.47;98.89;102319.19;4989484;28;20325;-52
2022/10/07 02:34:28;;;;;;;7.57;3.00;;;;;;;9.48;98.98;102324.50;4997368;28;20696;-51
2022/10/07 02:36:58;;;;;;;5.73;3.33;;;;;;;9.44;98.91;102317.38;4987821;28;20229;-50
2022/10/07 02:39:24;;;;;;;4.70;2.60;;;;;;;9.42;98.95;102305.06;5002152;28;20253;-51
2022/10/07 02:41:55;;;;;;;4.43;2.70;;;;;;;9.43;99.01;102309.47;5001672;28;20291;-51
2022/10/07 02:44:24;;;;;;;5.40;2.97;;;;;;;9.44;99.83;102309.53;4995276;28;20245;-50
2022/10/07 02:46:53;;;;;;;7.30;3.57;;;;;;;9.48;98.96;102303.50;4989167;28;20930;-50
2022/10/07 02:49:23;;;;;;;3.73;2.43;;;;;;;9.46;98.94;102305.19;4998211;28;20715;-51
2022/10/07 02:51:56;;;;;;;3.03;2.83;;;;;;;9.42;98.68;102302.44;4995092;28;20275;-52
2022/10/07 02:54:27;;;;;;;2.70;2.50;;;;;;;9.43;98.68;102294.63;5015724;28;20237;-52
2022/10/07 02:56:54;;;;;;;6.30;3.00;;;;;;;9.45;99.00;102299.91;5020216;28;20232;-51
2022/10/07 02:59:22;;;;;;;5.23;3.30;;;;;;;9.39;99.09;102308.47;5020600;28;20232;-52
2022/10/07 03:01:50;;;;;;;4.87;2.73;;;;;;;9.36;98.60;102302.25;5020596;28;20664;-52
2022/10/07 03:04:17;;;;;;;4.87;3.57;;;;;;;9.36;99.20;102303.16;5009181;28;20238;-52
2022/10/07 03:06:45;;;;;;;3.40;3.10;;;;;;;9.31;99.87;102294.28;4991055;28;20668;-53
2022/10/07 03:09:13;;;;;;;3.27;2.80;;;;;;;9.27;99.50;102292.41;5004153;28;20248;-52
2022/10/07 03:11:40;;;;;;;7.20;3.20;;;;;;;9.30;100.00;102292.47;5011473;28;20238;-52
2022/10/07 03:14:07;;;;;;;5.67;3.00;;;;;;;9.30;100.00;102292.47;5000488;28;20261;-51
2022/10/07 03:16:33;;;;;;;6.40;3.27;;;;;;;9.30;100.00;102297.72;4995603;28;20748;-52
2022/10/07 03:19:00;;;;;;;3.87;2.93;;;;;;;9.25;99.59;102284.50;4996508;28;20233;-52
2022/10/07 03:21:27;;;;;;;5.07;3.17;;;;;;;9.26;100.00;102280.13;5003974;28;20242;-52
2022/10/07 03:23:55;;;;;;;4.07;3.50;;;;;;;9.18;100.00;102286.88;5004944;28;20613;-51
2022/10/07 03:26:23;;;;;;;8.90;3.10;;;;;;;9.20;100.00;102279.97;4998713;28;20238;-51
2022/10/07 03:28:50;;;;;;;5.23;3.07;;;;;;;9.19;100.00;102283.41;4995685;28;20265;-51
2022/10/07 03:31:17;;;;;;;5.30;3.00;;;;;;;9.15;100.00;102271.06;4993744;28;20295;-52
2022/10/07 03:33:44;;;;;;;4.57;2.90;;;;;;;9.19;100.00;102283.41;5002598;28;20241;-51
2022/10/07 03:36:11;;;;;;;4.13;2.70;;;;;;;9.19;100.00;102284.28;4995389;28;20638;-51
2022/10/07 03:38:38;;;;;;;6.63;3.50;;;;;;;9.22;100.00;102275.66;5008925;28;20298;-52
2022/10/07 03:41:05;;;;;;;5.17;2.83;;;;;;;9.25;100.00;102273.13;5007599;28;20232;-51
2022/10/07 03:43:34;;;;;;;6.37;3.20;;;;;;;9.20;100.00;102269.50;5001721;28;20237;-51
2022/10/07 03:46:01;;;;;;;4.83;3.57;;;;;;;9.16;100.00;102263.28;4997684;28;20225;-52
2022/10/07 03:48:28;;;;;;;6.17;3.00;;;;;;;9.20;100.00;102253.75;4998460;28;20319;-51
2022/10/07 03:50:56;;;;;;;4.90;2.93;;;;;;;9.21;100.00;102255.53;5002076;28;20340;-51
2022/10/07 03:53:24;;;;;;;6.47;3.30;;;;;;;9.17;100.00;102245.81;5005640;28;20228;-52
2022/10/07 03:55:50;;;;;;;6.03;3.60;;;;;;;9.12;99.98;102260.50;5017152;28;20240;-51
2022/10/07 03:58:17;;;;;;;7.50;3.30;;;;;;;9.14;100.00;102258.81;5007944;28;20234;-52
2022/10/07 04:00:46;;;;;;;6.83;4.50;;;;;;;9.03;100.00;102248.91;5009940;28;20316;-52
2022/10/07 04:03:14;;;;;;;5.67;3.83;;;;;;;8.99;100.00;102254.03;4995753;28;20333;-51
2022/10/07 04:05:41;;;;;;;5.37;3.63;;;;;;;8.99;100.00;102254.03;4997369;28;20250;-52
2022/10/07 04:08:07;;;;;;;3.77;2.80;;;;;;;9.01;100.00;102247.06;5004664;28;20942;-52
2022/10/07 04:10:35;;;;;;;7.67;3.20;;;;;;;8.99;100.00;102252.28;5001300;28;20233;-52
2022/10/07 04:13:02;;;;;;;4.93;4.40;;;;;;;9.16;100.00;102241.41;5003617;28;20356;-52
2022/10/07 04:15:29;;;;;;;5.03;3.73;;;;;;;9.11;100.00;102237.75;5001397;28;20315;-51
2022/10/07 04:17:57;;;;;;;4.40;3.33;;;;;;;9.06;100.00;102243.75;4990537;28;20270;-52
2022/10/07 04:20:25;;;;;;;9.83;4.40;;;;;;;8.97;100.00;102243.47;5003209;28;20288;-52
2022/10/07 04:22:51;;;;;;;6.37;3.70;;;;;;;8.95;100.00;102247.81;5008188;28;20308;-52
2022/10/07 04:25:34;;;;;;;4.80;3.30;;;;;;;8.91;100.00;102242.41;5000574;28;20352;-52
2022/10/07 04:28:01;;;;;;;3.60;3.30;;;;;;;8.93;100.00;102239.00;5002943;28;20244;-53
2022/10/07 04:30:31;;;;;;;7.57;3.50;;;;;;;8.91;100.00;102232.81;4986703;28;20237;-52
2022/10/07 04:32:59;;;;;;;4.30;3.07;;;;;;;8.95;100.00;102229.47;5000904;28;20678;-51
2022/10/07 04:35:25;;;;;;;6.10;3.63;;;;;;;8.92;100.00;102226.75;5005271;28;20673;-53
2022/10/07 04:37:53;;;;;;;4.27;3.70;;;;;;;8.86;100.00;102225.69;5004255;28;20239;-52
2022/10/07 04:40:20;;;;;;;4.97;4.17;;;;;;;8.73;100.00;102230.53;5001885;28;20237;-51
2022/10/07 04:45:32;;;;;;;7.63;3.73;;;;;;;8.73;100.00;102216.56;5002596;28;20596;-51
2022/10/07 04:48:01;;;;;;;7.63;4.23;;;;;;;8.74;100.00;102223.56;4997367;28;20233;-52
2022/10/07 04:50:27;;;;;;;5.83;3.57;;;;;;;8.71;100.00;102210.41;5007943;28;20627;-52
2022/10/07 04:52:55;;;;;;;7.03;3.57;;;;;;;8.70;100.00;102219.06;5013992;28;20247;-51
2022/10/07 04:55:22;;;;;;;4.50;4.07;;;;;;;8.66;100.00;102217.22;5019778;28;20294;-51
2022/10/07 04:57:49;;;;;;;6.70;3.50;;;;;;;8.65;100.00;102210.22;5026604;28;20239;-51
2022/10/07 05:00:17;;;;;;;4.63;4.23;;;;;;;8.64;100.00;102213.66;5018780;28;20309;-51
2022/10/07 05:02:45;;;;;;;6.90;3.93;;;;;;;8.55;100.00;102212.53;5022957;28;20940;-51
2022/10/07 05:05:13;;;;;;;6.33;3.67;;;;;;;8.65;100.00;102207.59;5027644;28;20247;-50
2022/10/07 05:07:40;;;;;;;5.00;3.43;;;;;;;8.62;100.00;102199.63;5029851;28;20354;-50
2022/10/07 05:10:08;;;;;;;7.57;3.73;;;;;;;8.53;100.00;102201.13;5030501;28;20718;-51
2022/10/07 05:12:35;;;;;;;5.27;3.53;;;;;;;8.48;100.00;102205.31;5021536;28;20666;-52
2022/10/07 05:15:03;;;;;;;6.17;4.00;;;;;;;8.44;100.00;102193.00;5020636;28;20310;-55
2022/10/07 05:17:30;;;;;;;7.87;3.50;;;;;;;8.47;100.00;102195.72;5023634;28;22285;-53
2022/10/07 05:19:56;;;;;;;3.97;3.53;;;;;;;8.48;100.00;102193.97;5028670;28;20243;-51
2022/10/07 05:22:25;;;;;;;5.47;4.10;;;;;;;8.50;100.00;102187.94;5026826;28;20737;-50
2022/10/07 05:24:53;;;;;;;5.57;3.77;;;;;;;8.60;100.00;102186.50;5021585;28;20244;-52
2022/10/07 05:27:20;;;;;;;9.27;4.20;;;;;;;8.70;100.00;102188.53;5019106;28;20233;-51
2022/10/07 05:29:46;;;;;;;8.07;4.20;;;;;;;8.69;100.00;102184.16;5031645;28;20225;-51
2022/10/07 05:32:13;;;;;;;7.87;3.83;;;;;;;8.63;100.00;102188.31;5028949;28;20351;-52
2022/10/07 05:34:40;;;;;;;12.00;5.00;;;;;;;8.58;100.00;102175.97;5027571;28;20700;-52
2022/10/07 05:37:07;;;;;;;5.03;3.90;;;;;;;8.58;100.00;102178.59;5023598;28;20305;-53
2022/10/07 05:39:35;;;;;;;6.63;4.27;;;;;;;8.54;100.00;102174.13;5022788;28;20242;-51
2022/10/07 05:42:01;;;;;;;5.87;4.27;;;;;;;8.48;100.00;102173.91;5011409;28;20241;-52
2022/10/07 05:44:30;;;;;;;13.97;4.77;;;;;;;8.46;100.00;102173.00;5003500;28;20237;-52
2022/10/07 05:46:57;;;;;;;4.80;4.40;;;;;;;8.50;100.00;102172.25;5003879;28;20253;-52
2022/10/07 05:49:24;;;;;;;8.77;4.80;;;;;;;8.47;100.00;102174.75;5000385;28;20226;-51
2022/10/07 05:51:51;;;;;;;6.03;4.83;;;;;;;8.52;100.00;102167.94;5026303;28;20340;-52
2022/10/07 05:54:19;;;;;;;7.43;4.50;;;;;;;8.60;100.00;102165.56;5000268;28;20313;-54
2022/10/07 05:56:47;;;;;;;9.83;4.57;;;;;;;8.57;100.00;102166.34;4999278;28;20233;-52
2022/10/07 05:59:14;;;;;;;5.07;4.57;;;;;;;8.62;100.00;102168.22;5005021;28;20316;-52
2022/10/07 06:01:41;;;;;;;5.30;4.37;;;;;;;8.56;100.00;102175.06;4994463;28;20574;-52
2022/10/07 06:04:09;;;;;;;5.20;4.70;;;;;;;8.58;100.00;102168.13;5007424;28;20249;-51
2022/10/07 06:06:35;;;;;;;5.70;4.80;;;;;;;8.77;100.00;102159.06;5010147;28;20286;-52
2022/10/07 06:14:29;;;;;;;5.00;4.40;;;;;;;9.04;100.00;102164.22;5002461;28;20307;-50
2022/10/07 06:16:55;;;;;;;11.80;5.13;;;;;;;9.07;100.00;102166.06;5000801;28;20528;-53
2022/10/07 06:19:22;;;;;;;6.03;5.10;;;;;;;9.08;100.00;102165.19;5001105;28;20268;-52
2022/10/07 06:21:49;;;;;;;10.33;5.33;;;;;;;9.14;100.00;102156.63;4995983;28;20718;-52
2022/10/07 06:24:16;;;;;;;8.47;5.47;;;;;;;9.19;100.00;102163.75;4994759;28;20239;-51
2022/10/07 06:26:43;;;;;;;8.83;4.80;;;;;;;9.21;100.00;102153.34;5003204;28;20233;-52
2022/10/07 06:29:10;;;;;;;5.93;4.03;;;;;;;9.21;100.00;102155.94;5001856;28;20287;-52
2022/10/07 06:31:38;;;;;;;7.27;5.47;;;;;;;9.10;100.00;102163.53;4996516;28;20245;-51
2022/10/07 06:34:05;;;;;;;8.33;5.40;;;;;;;9.13;100.00;102162.72;4998556;28;20239;-51
2022/10/07 06:36:32;;;;;;;5.57;4.93;;;;;;;9.12;100.00;102158.31;5005581;28;20267;-53
2022/10/07 06:38:59;;;;;;;7.13;5.30;;;;;;;9.24;100.00;102161.28;5000188;28;20605;-51
2022/10/07 06:41:26;;;;;;;5.80;5.13;;;;;;;9.27;100.00;102156.13;4999191;28;20565;-52
2022/10/07 06:43:56;;;;;;;6.70;4.83;;;;;;;9.21;100.00;102161.19;5001187;28;20252;-51
2022/10/07 06:46:23;;;;;;;6.33;5.43;;;;;;;9.31;100.00;102158.88;4999597;28;20629;-51
2022/10/07 06:48:51;;;;;;;15.77;5.10;;;;;;;9.40;100.00;102157.31;4998340;28;20811;-52
2022/10/07 06:51:19;;;;;;;7.37;5.33;;;;;;;9.70;100.00;102167.75;4999857;28;20335;-51
2022/10/07 06:53:46;;;;;;;6.60;4.63;;;;;;;9.69;99.63;102161.63;5001057;28;20261;-50
2022/10/07 06:56:14;;;;;;;7.60;5.37;;;;;;;9.62;100.00;102161.41;5001076;28;20246;-50
2022/10/07 06:58:41;;;;;;;8.17;4.77;;;;;;;9.67;100.00;102157.16;4997312;28;20937;-51
2022/10/07 07:01:08;;;;;;;7.93;4.10;;;;;;;9.66;99.61;102155.41;5003937;28;20238;-51
2022/10/07 07:03:35;;;;;;;9.87;5.17;;;;;;;9.64;99.88;102157.09;5003172;28;20343;-50
2022/10/07 07:06:03;;;;;;;6.93;4.80;;;;;;;9.63;100.00;102155.31;4996447;28;20239;-54
2022/10/07 07:08:31;;;;;;;7.73;5.67;;;;;;;9.75;99.82;102158.25;5004251;28;20284;-52
2022/10/07 07:11:02;;;;;;;5.30;4.63;;;;;;;9.83;100.00;102154.09;4999147;28;20284;-52
2022/10/07 07:13:29;;;;;;;13.60;5.63;;;;;;;9.92;98.10;102159.56;4998114;28;20321;-51
2022/10/07 07:15:56;;;;;;;12.83;5.60;;;;;;;10.08;97.63;102162.56;4998588;28;20233;-53
2022/10/07 07:18:24;;;;;;;8.47;6.40;;;;;;;10.18;97.02;102161.91;4997271;28;20237;-53
2022/10/07 07:20:51;;;;;;;12.70;6.20;;;;;;;10.21;97.32;102161.97;5002617;28;20244;-52
2022/10/07 07:23:19;;;;;;;12.20;5.27;;;;;;;10.39;95.84;102166.81;4996997;28;20951;-52
2022/10/07 07:25:45;;;;;;;10.10;5.63;;;;;;;10.50;95.43;102158.34;5002868;28;20257;-52
2022/10/07 07:28:14;;;;;;;7.47;5.30;;;;;;;10.69;93.59;102158.72;4994151;28;20291;-52
2022/10/07 07:30:41;;;;;;;6.53;4.67;;;;;;;10.79;92.81;102155.44;4998459;28;20245;-52
2022/10/07 07:33:08;;;;;;;10.37;5.00;;;;;;;10.91;91.97;102153.06;5000165;28;20311;-51
2022/10/07 07:35:38;;;;;;;6.37;4.57;;;;;;;10.96;92.36;102148.78;4996117;28;20324;-52
2022/10/07 07:38:05;;;;;;;8.23;5.00;;;;;;;11.09;91.64;102149.03;4996484;28;20245;-52
2022/10/07 07:40:36;;;;;;;7.73;4.67;;;;;;;11.31;91.30;102147.72;4996688;28;20306;-56
2022/10/07 07:43:05;;;;;;;7.97;4.87;;;;;;;11.43;89.52;102148.81;5025554;28;20323;-52
2022/10/07 07:45:32;;;;;;;10.43;5.10;;;;;;;11.64;87.48;102147.41;5021751;28;20256;-50
2022/10/07 07:47:59;;;;;;;6.40;4.73;;;;;;;11.65;86.70;102146.56;5022125;28;20298;-51
2022/10/07 07:50:26;;;;;;;5.07;4.53;;;;;;;11.73;86.60;102147.59;5013780;28;20297;-51
2022/10/07 07:52:53;;;;;;;7.93;5.37;;;;;;;11.81;84.80;102140.69;5032546;28;20267;-51
2022/10/07 07:55:21;;;;;;;7.93;4.55;;;;;;;11.80;84.73;102145.94;4997565;28;20323;-52
2022/10/07 07:57:49;;;;;;;9.47;4.50;;;;;;;11.81;84.11;102142.44;5002929;28;20311;-51
2022/10/07 08:00:17;;;;;;;5.77;3.83;;;;;;;11.91;83.94;102144.41;4998486;28;20234;-51
2022/10/07 08:02:44;;;;;;;7.40;4.67;;;;;;;12.03;83.06;102141.06;5001303;28;20239;-52
2022/10/07 08:05:11;;;;;;;5.10;4.10;;;;;;;12.11;82.93;102139.44;5002340;28;20244;-52
2022/10/07 08:07:37;;;;;;;9.52;4.07;;;;;;;12.17;82.20;102144.81;4997891;28;20233;-51
2022/10/07 08:10:05;;;;;;;7.72;3.58;;;;;;;12.31;82.43;102139.75;4997119;28;20793;-52
2022/10/07 08:12:32;;;;;;;7.93;4.50;;;;;;;12.43;81.06;102131.16;5008577;28;20717;-52
2022/10/07 08:15:00;;;;;;;5.60;4.40;;;;;;;12.64;81.30;102128.78;5004099;28;20232;-51
2022/10/07 08:17:27;;;;;;;7.50;4.47;;;;;;;12.77;78.88;102133.34;5001372;28;20243;-53
2022/10/07 08:19:55;;;;;;;9.50;4.82;;;;;;;12.83;78.69;102128.13;5005768;28;20236;-51
2022/10/07 08:22:21;;;;;;;8.55;4.32;;;;;;;12.98;78.32;102121.28;5010181;28;20229;-51
2022/10/07 08:24:48;;;;;;;9.10;4.97;;;;;;;13.06;77.09;102123.16;5016652;28;20315;-53
2022/10/07 08:27:15;;;;;;;5.90;3.70;;;;;;;13.21;78.06;102125.06;5013609;28;20232;-53
2022/10/07 08:29:42;;;;;;;10.30;3.63;;;;;;;13.24;77.60;102122.50;5013580;28;20312;-51
2022/10/07 08:32:10;;;;;;;7.60;3.75;;;;;;;13.34;77.73;102110.28;5005047;28;20658;-51
2022/10/07 08:34:37;;;;;;;5.22;3.78;;;;;;;13.43;76.41;102109.47;5032691;28;20247;-52
2022/10/07 08:37:04;;;;;;;8.27;3.70;;;;;;;13.56;74.12;102111.38;5006192;28;20735;-52
2022/10/07 08:39:31;;;;;;;6.20;3.97;;;;;;;13.72;73.64;102107.97;4999202;28;20229;-51
2022/10/07 08:42:07;;;;;;;6.03;3.42;;;;;;;13.84;73.60;102101.91;5000566;28;20266;-53
2022/10/07 08:44:37;;;;;;;5.45;3.30;;;;;;;14.16;72.01;102098.59;5004113;28;20320;-52
2022/10/07 08:47:14;;;;;;;5.35;3.55;;;;;;;14.25;72.02;102099.56;5014612;28;20738;-52
2022/10/07 08:49:52;;;;;;;5.82;4.07;;;;;;;14.45;70.79;102096.13;5016902;28;20306;-51
2022/10/07 08:52:27;;;;;;;6.78;3.63;;;;;;;14.50;69.13;102099.72;5021016;28;20796;-51
2022/10/07 08:54:53;;;;;;;10.70;3.13;;;;;;;14.52;67.35;102098.81;5006198;28;20740;-51
2022/10/07 08:57:32;;;;;;;5.40;3.45;;;;;;;14.55;66.96;102090.03;5021709;28;20320;-51
2022/10/07 09:00:05;;;;;;;5.45;3.47;;;;;;;14.61;67.09;102089.19;5009243;28;20310;-50
2022/10/07 09:02:41;;;;;;;6.22;3.15;;;;;;;14.62;68.89;102072.44;5002397;28;20727;-51
2022/10/07 09:05:18;;;;;;;6.30;3.80;;;;;;;14.98;68.47;102076.94;5001790;28;20245;-52
2022/10/07 09:07:48;;;;;;;4.38;2.92;;;;;;;15.23;66.21;102081.44;4994086;28;20311;-52
2022/10/07 09:10:26;;;;;;;6.82;3.47;;;;;;;15.26;65.38;102075.25;5008611;28;20715;-51
2022/10/07 09:12:57;;;;;;;3.63;2.63;;;;;;;15.44;65.39;102074.38;5000676;28;20245;-52
2022/10/07 09:15:32;;;;;;;5.18;3.00;;;;;;;15.37;63.03;102075.25;5003028;28;20241;-52
2022/10/07 09:18:04;;;;;;;5.97;2.75;;;;;;;15.53;64.67;102063.78;5014740;28;20347;-51
2022/10/07 09:20:43;;;;;;;7.20;3.10;;;;;;;15.67;63.35;102059.41;5001240;28;20708;-52
2022/10/07 09:23:14;;;;;;;5.45;2.75;;;;;;;15.90;62.19;102050.53;5008581;28;20232;-51
2022/10/07 09:25:41;;;;;;;4.63;2.45;;;;;;;15.93;62.63;102053.19;5010380;28;20240;-51
2022/10/07 09:28:12;;;;;;;5.70;2.17;;;;;;;16.07;61.56;102054.03;5001152;28;20229;-51
2022/10/07 09:30:41;;;;;;;6.00;2.22;;;;;;;16.12;59.71;102052.25;5014436;28;20729;-52
2022/10/07 09:33:14;;;;;;;3.63;2.72;;;;;;;16.03;58.46;102051.41;5012095;28;20233;-51
2022/10/07 09:35:41;;;;;;;3.67;2.47;;;;;;;15.99;60.06;102045.22;5003868;28;20881;-51
2022/10/07 09:38:08;;;;;;;7.55;2.53;;;;;;;15.85;60.06;102037.31;5008080;28;20233;-52
2022/10/07 09:41:13;;;;;;;2.22;1.85;;;;;;;15.79;59.84;102041.72;4989614;28;20671;-51
2022/10/07 09:43:24;;;;;;;8.20;2.40;;;;;;;15.89;60.17;102036.41;5006098;28;21872;-53
2022/10/07 09:45:51;;;;;;;4.05;2.50;;;;;;;15.89;60.15;102038.19;5001784;28;20228;-53
2022/10/07 09:48:21;;;;;;;3.42;2.53;;;;;;;15.84;60.72;102026.72;5011284;28;20228;-52
2022/10/07 09:50:48;;;;;;;5.38;2.10;;;;;;;15.92;60.78;102027.59;5002065;28;20601;-53
2022/10/07 09:53:18;;;;;;;2.22;1.92;;;;;;;16.04;59.37;102026.66;5004726;28;20262;-52
2022/10/07 09:55:45;;;;;;;2.90;2.08;;;;;;;16.15;59.98;102019.59;5008186;28;20793;-51
2022/10/07 09:58:18;;;;;;;6.35;2.22;;;;;;;16.15;60.01;102012.50;5006892;28;20241;-51
2022/10/07 10:00:45;;;;;;;3.92;2.15;;;;;;;16.00;57.99;102020.50;5010620;28;20229;-51
2022/10/07 10:03:12;;;;;;;2.92;1.75;;;;;;;15.97;58.85;102009.94;5004758;28;20236;-52
2022/10/07 10:05:41;;;;;;;5.47;2.67;;;;;;;16.08;60.20;102010.78;5009907;28;20321;-52
2022/10/07 10:08:22;;;;;;;5.20;2.10;;;;;;;16.23;59.11;101996.56;5007848;28;20249;-53
2022/10/07 10:10:50;;;;;;;3.17;1.60;;;;;;;16.35;57.94;102003.59;4995758;28;20230;-50
2022/10/07 10:13:25;;;;;;;5.20;2.20;;;;;;;16.40;56.65;101994.72;5011044;28;20659;-51
2022/10/07 10:15:52;;;;;;;5.22;1.95;;;;;;;16.47;56.38;101995.59;5000255;28;20225;-52
2022/10/07 10:18:31;;;;;;;4.35;1.85;;;;;;;16.57;56.83;101993.78;5003295;28;20237;-52
2022/10/07 10:21:14;;;;;;;3.38;1.90;;;;;;;16.63;55.39;101997.25;5015870;28;20249;-52
2022/10/07 10:23:45;;;;;;;7.90;4.63;;;;;;;16.59;56.64;101982.25;5010000;28;20228;-51
2022/10/07 10:26:26;;;;;;;3.28;1.65;;;;;;;16.76;55.91;101982.19;5007514;28;20237;-52
2022/10/07 10:29:00;;;;;;;3.88;1.70;;;;;;;16.84;55.32;101980.34;5008523;28;20665;-51
2022/10/07 10:31:34;;;;;;;4.22;1.75;;;;;;;16.96;54.82;101979.41;5008997;28;20264;-51
2022/10/07 10:34:08;;;;;;;2.40;1.83;;;;;;;17.04;53.97;101968.72;5009269;28;20228;-51
2022/10/07 10:36:38;;;;;;;2.55;1.77;;;;;;;16.99;53.67;101962.56;5030182;28;20256;-51
2022/10/07 10:39:15;;;;;;;3.55;1.90;;;;;;;17.05;53.98;101968.69;5022015;28;20237;-52
2022/10/07 10:41:47;;;;;;;6.35;2.15;;;;;;;17.09;52.34;101964.25;5014998;28;20224;-52
2022/10/07 10:44:37;;;;;;;2.45;1.73;;;;;;;17.02;53.25;101954.56;5022737;28;20354;-52
2022/10/07 10:47:13;;;;;;;15.70;7.82;;;;;;;17.03;53.22;101948.41;4999046;28;20237;-53
2022/10/07 10:49:47;;;;;;;5.82;1.92;;;;;;;17.14;53.13;101941.22;5004308;28;20669;-50
2022/10/07 10:52:29;;;;;;;4.93;2.05;;;;;;;17.30;53.63;101934.84;5002337;28;20236;-51
2022/10/07 10:55:13;;;;;;;3.45;1.83;;;;;;;17.37;53.00;101933.94;4993266;28;20233;-52
2022/10/07 10:57:48;;;;;;;2.90;1.88;;;;;;;17.42;52.62;101925.91;5002525;28;20619;-51
2022/10/07 11:00:18;;;;;;;4.47;2.92;;;;;;;17.55;52.77;101916.00;5007838;28;20243;-51
2022/10/07 11:03:00;;;;;;;7.43;2.30;;;;;;;17.64;51.90;101914.16;5006039;28;20233;-51
2022/10/07 11:05:28;;;;;;;3.47;1.80;;;;;;;17.49;51.96;101903.69;4998125;28;20237;-51
2022/10/07 11:08:00;;;;;;;4.97;1.75;;;;;;;17.63;51.82;101896.47;5013091;28;20232;-52
2022/10/07 11:10:28;;;;;;;2.65;1.48;;;;;;;17.63;49.21;101898.25;5007029;28;20245;-52
2022/10/07 11:12:58;;;;;;;3.05;1.30;;;;;;;17.38;49.20;101884.38;5000043;28;21153;-52
2022/10/07 11:15:27;;;;;;;1.98;1.58;;;;;;;17.47;50.02;101886.91;5014546;28;20730;-52
2022/10/07 11:17:56;;;;;;;4.78;1.75;;;;;;;17.56;50.66;101884.16;5008096;28;21348;-51
2022/10/07 11:20:28;;;;;;;9.27;4.32;;;;;;;17.57;50.61;101871.75;5002726;28;20267;-52
2022/10/07 11:22:58;;;;;;;2.63;1.90;;;;;;;17.59;50.37;101881.47;5005664;28;20241;-51
2022/10/07 11:25:29;;;;;;;10.10;1.83;;;;;;;17.73;49.41;101869.81;5011301;28;20862;-51
2022/10/07 11:28:01;;;;;;;4.05;1.80;;;;;;;17.67;50.45;101867.22;5006306;28;20336;-50
2022/10/07 11:30:32;;;;;;;5.03;1.75;;;;;;;17.85;50.60;101853.72;5008560;28;20320;-51
2022/10/07 11:33:01;;;;;;;2.42;1.55;;;;;;;17.70;49.52;101851.25;4999041;28;20229;-52
2022/10/07 11:35:31;;;;;;;4.40;1.67;;;;;;;17.80;50.85;101844.94;5017148;28;20459;-52
2022/10/07 11:38:03;;;;;;;5.07;1.88;;;;;;;17.92;49.96;101842.13;5005036;28;20241;-51
2022/10/07 11:40:32;;;;;;;1.65;1.55;;;;;;;17.91;49.88;101837.69;5003657;28;20237;-61
2022/10/07 11:43:04;;;;;;;4.70;2.08;;;;;;;17.80;50.22;101834.31;4999410;28;20229;-52
2022/10/07 11:45:37;;;;;;;3.42;1.65;;;;;;;17.88;50.37;101835.97;5004606;28;20658;-52